createdAt,value
2023-05-08T00:01:32.079Z,10.18
2023-05-08T00:03:55.570Z,9.32
2023-05-08T00:06:18.973Z,10.00
2023-05-08T00:08:43.827Z,10.77
2023-05-08T00:11:07.181Z,10.52
2023-05-08T00:13:30.646Z,10.13
2023-05-08T00:15:53.924Z,10.27
2023-05-08T00:18:17.444Z,11.23
2023-05-08T00:20:41.757Z,12.00
2023-05-08T00:23:05.190Z,11.38
2023-05-08T00:25:31.285Z,11.27
2023-05-08T00:27:54.669Z,10.80
2023-05-08T00:30:18.563Z,10.52
2023-05-08T00:32:41.912Z,11.05
2023-05-08T00:35:05.949Z,11.00
2023-05-08T00:37:29.210Z,11.45
2023-05-08T00:39:52.512Z,10.45
2023-05-08T00:42:17.187Z,11.10
2023-05-08T00:44:41.224Z,12.18
2023-05-08T00:47:04.660Z,12.60
2023-05-08T00:49:28.364Z,14.05
2023-05-08T00:51:55.683Z,15.10
2023-05-08T00:54:19.549Z,12.13
2023-05-08T00:56:42.938Z,12.00
2023-05-08T00:59:13.303Z,11.73
2023-05-08T01:01:38.347Z,11.30
2023-05-08T01:04:01.753Z,12.98
2023-05-08T01:06:25.175Z,11.93
2023-05-08T01:08:48.396Z,11.75
2023-05-08T01:11:18.690Z,11.90
2023-05-08T01:13:53.912Z,12.98
2023-05-08T01:16:25.435Z,12.77
2023-05-08T01:19:02.507Z,11.65
2023-05-08T01:21:33.702Z,12.70
2023-05-08T01:24:43.901Z,13.75
2023-05-08T01:27:37.646Z,12.40
2023-05-08T01:30:41.068Z,14.73
2023-05-08T01:33:14.486Z,13.45
2023-05-08T01:35:45.119Z,13.75
2023-05-08T01:38:14.187Z,13.50
2023-05-08T01:40:52.618Z,14.52
2023-05-08T01:43:26.378Z,14.18
2023-05-08T01:45:52.773Z,14.02
2023-05-08T01:48:24.086Z,14.77
2023-05-08T01:50:50.581Z,18.42
2023-05-08T01:53:22.927Z,15.45
2023-05-08T01:55:49.920Z,17.30
2023-05-08T01:58:14.787Z,18.95
2023-05-08T02:00:41.059Z,19.27
2023-05-08T02:03:08.139Z,17.85
2023-05-08T02:05:34.036Z,17.15
2023-05-08T02:07:58.285Z,17.15
2023-05-08T02:10:24.888Z,18.52
2023-05-08T02:12:49.966Z,17.13
2023-05-08T02:15:16.431Z,15.10
2023-05-08T02:17:41.719Z,14.52
2023-05-08T02:20:07.714Z,13.35
2023-05-08T02:22:34.161Z,13.20
2023-05-08T02:24:58.965Z,11.77
2023-05-08T02:27:24.174Z,11.90
2023-05-08T02:29:47.423Z,12.32
2023-05-08T02:32:12.218Z,14.50
2023-05-08T02:34:39.469Z,15.57
2023-05-08T02:37:07.355Z,17.38
2023-05-08T02:39:32.807Z,15.18
2023-05-08T02:41:56.414Z,15.32
2023-05-08T02:44:21.360Z,14.70
2023-05-08T02:46:50.865Z,13.07
2023-05-08T02:49:28.974Z,13.55
2023-05-08T02:51:58.835Z,10.88
2023-05-08T02:54:36.590Z,14.18
2023-05-08T02:57:04.947Z,14.20
2023-05-08T02:59:32.890Z,13.80
2023-05-08T03:02:08.031Z,11.75
2023-05-08T03:04:37.767Z,11.88
2023-05-08T03:07:01.991Z,13.23
2023-05-08T03:09:40.987Z,13.82
2023-05-08T03:12:19.515Z,14.75
2023-05-08T03:14:56.659Z,13.98
2023-05-08T03:17:22.454Z,13.95
2023-05-08T03:19:51.663Z,12.23
2023-05-08T03:22:17.677Z,11.90
2023-05-08T03:24:44.230Z,15.32
2023-05-08T03:27:09.948Z,16.17
2023-05-08T03:29:34.661Z,14.65
2023-05-08T03:31:59.944Z,14.25
2023-05-08T03:34:24.640Z,14.70
2023-05-08T03:36:49.861Z,15.70
2023-05-08T03:39:13.612Z,13.75
2023-05-08T03:41:37.307Z,14.32
2023-05-08T03:44:04.384Z,10.90
2023-05-08T03:46:27.896Z,12.40
2023-05-08T03:48:54.431Z,14.00
2023-05-08T03:51:18.484Z,11.68
2023-05-08T03:53:41.943Z,11.25
2023-05-08T03:56:06.026Z,12.75
2023-05-08T03:58:38.439Z,12.10
2023-05-08T04:01:09.809Z,11.68
2023-05-08T04:03:52.868Z,11.73
2023-05-08T04:06:28.786Z,11.35
2023-05-08T04:09:04.497Z,12.45
2023-05-08T04:11:35.473Z,12.98
2023-05-08T04:14:06.398Z,13.15
2023-05-08T04:16:38.001Z,12.65
2023-05-08T04:19:04.268Z,12.60
2023-05-08T04:21:34.540Z,11.73
2023-05-08T04:23:59.684Z,12.60
2023-05-08T04:26:24.204Z,12.90
2023-05-08T04:28:49.402Z,11.48
2023-05-08T04:31:15.136Z,11.18
2023-05-08T04:33:40.233Z,11.52
2023-05-08T04:36:03.898Z,10.70
2023-05-08T04:38:28.110Z,10.98
2023-05-08T04:40:51.509Z,12.23
2023-05-08T04:43:14.857Z,12.00
2023-05-08T04:45:38.299Z,11.82
2023-05-08T04:48:02.048Z,10.82
2023-05-08T04:50:27.209Z,11.20
2023-05-08T04:52:50.535Z,11.30
2023-05-08T04:55:14.063Z,11.23
2023-05-08T04:57:37.649Z,10.65
2023-05-08T05:00:00.904Z,12.98
2023-05-08T05:02:27.510Z,12.38
2023-05-08T05:04:51.241Z,11.57
2023-05-08T05:07:15.964Z,11.48
2023-05-08T05:09:39.932Z,11.63
2023-05-08T05:12:04.536Z,11.52
2023-05-08T05:14:27.973Z,12.32
2023-05-08T05:16:52.714Z,11.18
2023-05-08T05:19:16.478Z,12.68
2023-05-08T05:21:39.866Z,12.20
2023-05-08T05:24:05.233Z,12.27
2023-05-08T05:26:28.867Z,12.57
2023-05-08T05:28:52.221Z,14.10
2023-05-08T05:31:15.696Z,14.07
2023-05-08T05:33:39.291Z,13.45
2023-05-08T05:36:03.070Z,13.40
2023-05-08T05:38:26.798Z,13.52
2023-05-08T05:40:51.502Z,12.40
2023-05-08T05:43:14.755Z,12.35
2023-05-08T05:45:39.192Z,11.88
2023-05-08T05:48:02.981Z,11.73
2023-05-08T05:50:27.615Z,11.98
2023-05-08T05:52:52.764Z,12.43
2023-05-08T05:55:17.197Z,12.93
2023-05-08T05:57:44.161Z,11.52
2023-05-08T06:00:09.324Z,12.45
2023-05-08T06:02:42.698Z,12.80
2023-05-08T06:05:10.861Z,13.32
2023-05-08T06:07:34.626Z,14.75
2023-05-08T06:10:00.149Z,15.00
2023-05-08T06:12:23.609Z,13.90
2023-05-08T06:14:48.314Z,14.38
2023-05-08T06:17:11.751Z,14.60
2023-05-08T06:19:35.128Z,13.65
2023-05-08T06:21:58.481Z,14.02
2023-05-08T06:24:21.847Z,15.52
2023-05-08T06:26:45.381Z,15.13
2023-05-08T06:29:08.734Z,14.30
2023-05-08T06:31:33.780Z,15.18
2023-05-08T06:33:57.545Z,15.25
2023-05-08T06:36:20.859Z,14.23
2023-05-08T06:38:44.100Z,14.32
2023-05-08T06:41:07.495Z,13.77
2023-05-08T06:43:31.082Z,14.20
2023-05-08T06:45:55.204Z,15.05
2023-05-08T06:48:20.148Z,14.40
2023-05-08T06:50:43.477Z,14.75
2023-05-08T06:53:07.110Z,15.23
2023-05-08T06:55:30.502Z,15.25
2023-05-08T06:57:53.773Z,14.55
2023-05-08T07:00:17.554Z,15.73
2023-05-08T07:02:41.059Z,16.35
2023-05-08T07:05:07.057Z,14.93
2023-05-08T07:07:30.448Z,16.00
2023-05-08T07:09:53.701Z,15.32
2023-05-08T07:12:16.925Z,15.30
2023-05-08T07:14:40.203Z,15.25
2023-05-08T07:17:07.422Z,14.98
2023-05-08T07:19:31.564Z,15.07
2023-05-08T07:21:56.176Z,13.73
2023-05-08T07:24:19.530Z,14.18
2023-05-08T07:26:42.863Z,12.77
2023-05-08T07:29:06.138Z,13.63
2023-05-08T07:31:29.544Z,14.90
2023-05-08T07:33:52.904Z,15.25
2023-05-08T07:36:16.173Z,19.23
2023-05-08T07:38:40.844Z,20.98
2023-05-08T07:41:05.272Z,22.48
2023-05-08T07:43:28.627Z,24.38
2023-05-08T07:45:52.004Z,22.30
2023-05-08T07:48:15.429Z,22.45
2023-05-08T07:50:38.785Z,22.25
2023-05-08T07:53:02.152Z,19.77
2023-05-08T07:55:26.995Z,20.52
2023-05-08T07:57:50.260Z,21.67
2023-05-08T08:00:16.249Z,21.02
2023-05-08T08:02:40.237Z,20.33
2023-05-08T08:05:03.734Z,19.75
2023-05-08T08:07:27.281Z,21.17
2023-05-08T08:09:50.876Z,22.77
2023-05-08T08:12:15.652Z,22.75
2023-05-08T08:14:38.914Z,21.67
2023-05-08T08:17:02.477Z,19.58
2023-05-08T08:19:26.372Z,22.58
2023-05-08T08:21:49.734Z,23.13
2023-05-08T08:24:13.586Z,20.40
2023-05-08T08:26:37.020Z,20.08
2023-05-08T08:29:02.064Z,21.10
2023-05-08T08:31:25.452Z,19.77
2023-05-08T08:33:48.737Z,19.67
2023-05-08T08:36:15.093Z,18.80
2023-05-08T08:38:38.309Z,16.58
2023-05-08T08:41:01.593Z,15.65
2023-05-08T08:43:24.995Z,14.75
2023-05-08T08:45:49.649Z,15.35
2023-05-08T08:48:14.269Z,15.10
2023-05-08T08:50:43.412Z,14.60
2023-05-08T08:53:14.860Z,9.27
2023-05-08T08:55:41.844Z,12.00
2023-05-08T08:58:20.861Z,16.83
2023-05-08T09:00:44.687Z,15.10
2023-05-08T09:03:09.611Z,14.05
2023-05-08T09:05:33.283Z,14.57
2023-05-08T09:07:56.976Z,13.63
2023-05-08T09:10:20.490Z,15.02
2023-05-08T09:12:45.107Z,15.10
2023-05-08T09:15:09.036Z,12.63
2023-05-08T09:17:32.446Z,15.25
2023-05-08T09:19:57.404Z,14.88
2023-05-08T09:22:22.951Z,13.80
2023-05-08T09:24:57.935Z,12.45
2023-05-08T09:27:23.552Z,12.77
2023-05-08T09:30:01.806Z,13.57
2023-05-08T09:32:25.480Z,12.23
2023-05-08T09:34:54.169Z,12.18
2023-05-08T09:37:18.937Z,14.27
2023-05-08T09:39:43.573Z,13.73
2023-05-08T09:42:07.067Z,14.68
2023-05-08T09:44:30.908Z,14.63
2023-05-08T09:47:10.968Z,14.68
2023-05-08T09:49:34.302Z,16.35
2023-05-08T09:51:57.582Z,16.73
2023-05-08T09:54:22.340Z,15.75
2023-05-08T09:56:45.835Z,13.80
2023-05-08T09:59:26.241Z,8.43
2023-05-08T10:01:49.727Z,8.00
2023-05-08T10:04:13.024Z,8.27
2023-05-08T10:06:36.597Z,8.77
2023-05-08T10:09:11.728Z,9.13
2023-05-08T10:11:36.992Z,9.20
2023-05-08T10:14:01.177Z,8.57
2023-05-08T10:16:25.013Z,9.50
2023-05-08T10:18:50.266Z,8.65
2023-05-08T10:21:14.707Z,8.52
2023-05-08T10:23:40.203Z,11.23
2023-05-08T10:26:11.143Z,10.50
2023-05-08T10:28:44.752Z,10.13
2023-05-08T10:31:10.801Z,10.32
2023-05-08T10:33:36.516Z,9.77
2023-05-08T10:36:01.069Z,9.98
2023-05-08T10:38:25.562Z,9.27
2023-05-08T10:40:52.903Z,10.57
2023-05-08T10:43:17.319Z,9.52
2023-05-08T10:45:42.600Z,10.43
2023-05-08T10:48:21.342Z,11.02
2023-05-08T10:50:59.018Z,9.77
2023-05-08T10:53:36.003Z,10.38
2023-05-08T10:55:59.563Z,9.93
2023-05-08T10:58:33.720Z,10.15
2023-05-08T11:01:18.269Z,12.82
2023-05-08T11:03:44.501Z,10.45
2023-05-08T11:06:08.486Z,9.48
2023-05-08T11:08:33.168Z,10.02
2023-05-08T11:11:07.048Z,10.63
2023-05-08T11:13:34.847Z,9.13
2023-05-08T11:15:58.222Z,9.20
2023-05-08T11:18:26.338Z,9.48
2023-05-08T11:20:58.653Z,9.25
2023-05-08T11:23:25.806Z,8.63
2023-05-08T11:25:49.027Z,9.00
2023-05-08T11:28:12.592Z,7.97
2023-05-08T11:30:39.095Z,9.10
2023-05-08T11:33:32.911Z,8.38
2023-05-08T11:35:57.901Z,8.30
2023-05-08T11:38:27.757Z,7.93
2023-05-08T11:40:59.855Z,9.23
2023-05-08T11:43:55.537Z,8.63
2023-05-08T11:46:21.634Z,8.80
2023-05-08T11:48:46.399Z,8.95
2023-05-08T11:51:10.116Z,10.18
2023-05-08T11:53:34.251Z,9.25
2023-05-08T11:55:57.668Z,10.18
2023-05-08T11:58:21.718Z,9.40
2023-05-08T12:00:46.085Z,10.68
2023-05-08T12:03:09.624Z,10.93
2023-05-08T12:05:34.347Z,9.77
2023-05-08T12:07:57.635Z,9.80
2023-05-08T12:10:20.881Z,9.75
2023-05-08T12:12:46.360Z,10.07
2023-05-08T12:15:11.919Z,9.20
2023-05-08T12:17:35.695Z,9.05
2023-05-08T12:20:10.962Z,9.55
2023-05-08T12:22:36.187Z,8.88
2023-05-08T12:24:59.513Z,8.57
2023-05-08T12:27:22.972Z,8.43
2023-05-08T12:29:46.752Z,7.97
2023-05-08T12:32:10.622Z,9.07
2023-05-08T12:34:33.973Z,7.90
2023-05-08T12:37:04.337Z,8.25
2023-05-08T12:39:29.071Z,7.75
2023-05-08T12:41:54.057Z,7.80
2023-05-08T12:44:24.178Z,7.45
2023-05-08T12:46:50.895Z,6.78
2023-05-08T12:49:14.212Z,7.00
2023-05-08T12:51:37.539Z,6.72
2023-05-08T12:54:00.863Z,5.68
2023-05-08T12:56:25.508Z,5.53
2023-05-08T12:58:48.813Z,5.55
2023-05-08T13:01:14.155Z,4.72
2023-05-08T13:03:38.486Z,4.22
2023-05-08T13:06:01.917Z,3.95
2023-05-08T13:08:32.094Z,3.90
2023-05-08T13:10:57.105Z,3.90
2023-05-08T13:13:24.008Z,3.85
2023-05-08T13:15:48.271Z,4.20
2023-05-08T13:18:11.789Z,4.03
2023-05-08T13:20:35.306Z,4.10
2023-05-08T13:22:58.580Z,3.58
2023-05-08T13:25:21.813Z,3.25
2023-05-08T13:27:45.077Z,2.83
2023-05-08T13:30:11.542Z,2.80
2023-05-08T13:32:34.950Z,3.47
2023-05-08T13:35:00.832Z,3.25
2023-05-08T13:37:24.490Z,2.92
2023-05-08T13:39:47.794Z,3.10
2023-05-08T13:42:11.178Z,3.53
2023-05-08T13:44:34.553Z,3.17
2023-05-08T13:46:59.402Z,3.85
2023-05-08T13:49:24.239Z,4.15
2023-05-08T13:51:51.917Z,3.72
2023-05-08T13:54:18.337Z,3.60
2023-05-08T13:56:41.698Z,4.13
2023-05-08T13:59:04.949Z,3.92
2023-05-08T14:01:28.506Z,4.15
2023-05-08T14:03:53.760Z,4.60
2023-05-08T14:06:17.210Z,3.58
2023-05-08T14:08:46.444Z,3.05
2023-05-08T14:11:12.398Z,5.20
2023-05-08T14:13:35.631Z,3.38
2023-05-08T14:15:58.952Z,3.55
2023-05-08T14:18:22.276Z,3.38
2023-05-08T14:20:56.419Z,3.22
2023-05-08T14:23:20.356Z,3.67
2023-05-08T14:25:43.653Z,3.97
2023-05-08T14:28:07.004Z,4.78
2023-05-08T14:30:30.326Z,3.85
2023-05-08T14:32:54.039Z,4.10
2023-05-08T14:35:17.622Z,4.22
2023-05-08T14:37:42.333Z,4.38
2023-05-08T14:40:07.006Z,4.35
2023-05-08T14:42:30.295Z,3.65
2023-05-08T14:44:53.738Z,3.47
2023-05-08T14:47:17.439Z,2.85
2023-05-08T14:49:41.120Z,2.75
2023-05-08T14:52:04.539Z,3.20
2023-05-08T14:54:29.519Z,3.10
2023-05-08T14:56:52.885Z,3.67
2023-05-08T14:59:16.200Z,3.03
2023-05-08T15:01:42.879Z,3.58
2023-05-08T15:04:06.635Z,3.60
2023-05-08T15:06:31.060Z,3.28
2023-05-08T15:08:54.295Z,2.42
2023-05-08T15:11:19.144Z,3.10
2023-05-08T15:13:42.285Z,2.92
2023-05-08T15:16:06.509Z,3.50
2023-05-08T15:18:29.858Z,3.00
2023-05-08T15:20:53.047Z,2.80
2023-05-08T15:23:16.373Z,3.20
2023-05-08T15:25:40.052Z,2.83
2023-05-08T15:28:04.863Z,2.80
2023-05-08T15:30:28.152Z,3.10
2023-05-08T15:32:52.729Z,3.03
2023-05-08T15:35:16.472Z,2.90
2023-05-08T15:37:39.837Z,3.63
2023-05-08T15:40:03.207Z,3.40
2023-05-08T15:42:26.506Z,3.17
2023-05-08T15:44:54.953Z,2.95
2023-05-08T15:47:19.497Z,3.30
2023-05-08T15:49:42.847Z,3.28
2023-05-08T15:52:06.285Z,3.03
2023-05-08T15:54:29.693Z,3.13
2023-05-08T15:56:53.347Z,2.95
2023-05-08T15:59:16.770Z,3.00
2023-05-08T16:01:41.862Z,2.90
2023-05-08T16:04:05.172Z,2.78
2023-05-08T16:06:28.521Z,2.90
2023-05-08T16:08:52.849Z,2.95
2023-05-08T16:11:16.163Z,2.63
2023-05-08T16:13:39.436Z,2.83
2023-05-08T16:16:06.426Z,2.80
2023-05-08T16:18:31.207Z,2.70
2023-05-08T16:20:54.495Z,3.22
2023-05-08T16:23:17.703Z,3.53
2023-05-08T16:25:41.046Z,3.55
2023-05-08T16:28:04.555Z,3.42
2023-05-08T16:30:27.814Z,3.92
2023-05-08T16:32:51.180Z,3.60
2023-05-08T16:35:16.259Z,3.90
2023-05-08T16:37:39.737Z,4.05
2023-05-08T16:40:03.270Z,3.60
2023-05-08T16:42:26.614Z,3.67
2023-05-08T16:44:49.801Z,4.72
2023-05-08T16:47:13.180Z,4.43
2023-05-08T16:49:37.476Z,4.70
2023-05-08T16:52:02.129Z,4.82
2023-05-08T16:54:25.470Z,4.82
2023-05-08T16:56:48.755Z,4.65
2023-05-08T16:59:12.100Z,5.10
2023-05-08T17:01:35.624Z,5.18
2023-05-08T17:03:58.917Z,5.18
2023-05-08T17:06:22.264Z,5.18
2023-05-08T17:08:46.903Z,5.57
2023-05-08T17:11:10.133Z,5.85
2023-05-08T17:13:33.446Z,5.47
2023-05-08T17:15:56.741Z,6.00
2023-05-08T17:18:20.828Z,6.72
2023-05-08T17:20:44.130Z,6.45
2023-05-08T17:23:07.665Z,6.55
2023-05-08T17:25:32.288Z,6.70
2023-05-08T17:27:55.987Z,7.15
2023-05-08T17:30:19.792Z,6.53
2023-05-08T17:32:43.161Z,7.38
2023-05-08T17:35:07.900Z,7.38
2023-05-08T17:37:31.212Z,7.53
2023-05-08T17:39:54.504Z,8.18
2023-05-08T17:42:19.172Z,9.10
2023-05-08T17:44:42.396Z,8.25
2023-05-08T17:47:06.011Z,8.48
2023-05-08T17:49:29.400Z,9.88
2023-05-08T17:51:52.650Z,9.90
2023-05-08T17:54:15.989Z,10.00
2023-05-08T17:56:39.228Z,10.48
2023-05-08T17:59:03.858Z,9.65
2023-05-08T18:01:27.583Z,10.00
2023-05-08T18:03:50.990Z,9.57
2023-05-08T18:06:16.357Z,10.13
2023-05-08T18:08:41.442Z,9.70
2023-05-08T18:11:05.352Z,9.32
2023-05-08T18:13:28.643Z,9.70
2023-05-08T18:15:53.258Z,10.07
2023-05-08T18:18:16.558Z,8.55
2023-05-08T18:20:39.890Z,8.32
2023-05-08T18:23:03.079Z,9.15
2023-05-08T18:25:26.433Z,8.95
2023-05-08T18:27:50.452Z,9.88
2023-05-08T18:30:14.811Z,9.48
2023-05-08T18:32:39.843Z,8.40
2023-05-08T18:35:03.174Z,8.75
2023-05-08T18:37:26.585Z,9.15
2023-05-08T18:39:50.057Z,8.50
2023-05-08T18:42:13.317Z,9.35
2023-05-08T18:44:36.499Z,9.63
2023-05-08T18:46:59.781Z,9.98
2023-05-08T18:49:24.399Z,9.10
2023-05-08T18:51:47.626Z,9.65
2023-05-08T18:54:10.848Z,9.48
2023-05-08T18:56:34.378Z,10.30
2023-05-08T18:58:57.603Z,9.52
2023-05-08T19:01:21.552Z,9.23
2023-05-08T19:03:45.077Z,9.73
2023-05-08T19:06:09.736Z,10.30
2023-05-08T19:08:32.941Z,9.27
2023-05-08T19:10:56.363Z,9.30
2023-05-08T19:13:19.782Z,9.57
2023-05-08T19:15:43.256Z,9.02
2023-05-08T19:18:06.861Z,10.07
2023-05-08T19:20:30.326Z,10.30
2023-05-08T19:22:55.688Z,10.43
2023-05-08T19:25:18.975Z,9.30
2023-05-08T19:27:42.244Z,9.27
2023-05-08T19:30:07.509Z,9.32
2023-05-08T19:32:30.717Z,9.57
2023-05-08T19:34:57.286Z,9.32
2023-05-08T19:37:20.652Z,9.82
2023-05-08T19:39:45.417Z,10.27
2023-05-08T19:42:10.517Z,9.98
2023-05-08T19:44:33.848Z,8.70
2023-05-08T19:46:57.097Z,9.77
2023-05-08T19:49:20.348Z,11.40
2023-05-08T19:51:43.713Z,10.30
2023-05-08T19:54:07.321Z,12.45
2023-05-08T19:56:32.010Z,12.05
2023-05-08T19:58:55.368Z,12.00
2023-05-08T20:01:18.641Z,11.30
2023-05-08T20:03:42.164Z,11.60
2023-05-08T20:06:05.816Z,11.18
2023-05-08T20:08:29.164Z,11.48
2023-05-08T20:10:52.438Z,10.90
2023-05-08T20:13:17.666Z,10.95
2023-05-08T20:15:41.040Z,10.40
2023-05-08T20:18:04.511Z,12.88
2023-05-08T20:20:29.648Z,10.55
2023-05-08T20:22:52.937Z,13.20
2023-05-08T20:25:16.351Z,11.00
2023-05-08T20:27:39.619Z,9.90
2023-05-08T20:30:04.919Z,10.02
2023-05-08T20:32:28.178Z,8.52
2023-05-08T20:34:51.518Z,8.75
2023-05-08T20:37:15.877Z,8.23
2023-05-08T20:39:39.331Z,8.68
2023-05-08T20:42:02.606Z,8.52
2023-05-08T20:44:26.631Z,8.63
2023-05-08T20:46:51.349Z,8.10
2023-05-08T20:49:17.079Z,8.68
2023-05-08T20:51:40.388Z,7.53
2023-05-08T20:54:03.826Z,8.15
2023-05-08T20:56:27.136Z,7.93
2023-05-08T20:58:50.427Z,8.23
2023-05-08T21:01:13.717Z,7.75
2023-05-08T21:03:38.747Z,7.53
2023-05-08T21:06:02.083Z,7.78
2023-05-08T21:08:26.454Z,7.45
2023-05-08T21:10:49.682Z,8.00
2023-05-08T21:13:13.036Z,7.55
2023-05-08T21:15:36.565Z,6.95
2023-05-08T21:17:59.870Z,7.15
2023-05-08T21:20:24.613Z,8.50
2023-05-08T21:22:48.084Z,7.22
2023-05-08T21:25:12.566Z,8.05
2023-05-08T21:27:37.874Z,7.60
2023-05-08T21:30:01.089Z,8.32
2023-05-08T21:32:24.415Z,7.82
2023-05-08T21:34:48.118Z,9.43
2023-05-08T21:37:13.045Z,8.70
2023-05-08T21:39:36.668Z,9.13
2023-05-08T21:41:59.909Z,7.90
2023-05-08T21:44:23.061Z,9.57
2023-05-08T21:46:46.365Z,9.13
2023-05-08T21:49:10.103Z,9.40
2023-05-08T21:51:33.474Z,9.23
2023-05-08T21:53:58.052Z,8.68
2023-05-08T21:56:21.530Z,9.35
2023-05-08T21:58:45.143Z,8.77
2023-05-08T22:01:08.368Z,9.32
2023-05-08T22:03:31.930Z,9.32
2023-05-08T22:05:55.448Z,9.60
2023-05-08T22:08:18.815Z,9.68
2023-05-08T22:10:44.104Z,9.60
2023-05-08T22:13:07.724Z,10.80
2023-05-08T22:15:31.283Z,9.23
2023-05-08T22:17:55.843Z,9.98
2023-05-08T22:20:19.419Z,10.50
2023-05-08T22:22:42.868Z,9.98
2023-05-08T22:25:07.317Z,9.88
2023-05-08T22:27:31.995Z,10.52
2023-05-08T22:29:55.246Z,10.40
2023-05-08T22:32:19.022Z,10.23
2023-05-08T22:34:42.337Z,10.15
2023-05-08T22:37:05.706Z,11.60
2023-05-08T22:39:29.002Z,11.70
2023-05-08T22:41:52.429Z,10.68
2023-05-08T22:44:17.103Z,10.65
2023-05-08T22:46:40.461Z,11.45
2023-05-08T22:49:03.812Z,11.18
2023-05-08T22:51:27.773Z,12.43
2023-05-08T22:53:51.000Z,12.20
2023-05-08T22:56:14.315Z,11.73
2023-05-08T22:58:37.656Z,11.70
2023-05-08T23:01:02.335Z,11.63
2023-05-08T23:03:25.625Z,12.38
2023-05-08T23:05:49.412Z,11.80
2023-05-08T23:08:12.770Z,12.68
2023-05-08T23:10:36.022Z,12.85
2023-05-08T23:12:59.307Z,11.95
2023-05-08T23:15:22.579Z,10.90
2023-05-08T23:17:47.218Z,13.32
2023-05-08T23:20:11.806Z,12.30
2023-05-08T23:22:35.046Z,12.32
2023-05-08T23:24:58.360Z,12.27
2023-05-08T23:27:21.653Z,13.00
2023-05-08T23:29:44.950Z,12.73
2023-05-08T23:32:08.492Z,12.35
2023-05-08T23:34:33.139Z,12.38
2023-05-08T23:36:56.428Z,13.68
2023-05-08T23:39:19.648Z,13.43
2023-05-08T23:41:42.959Z,12.57
2023-05-08T23:44:06.618Z,12.63
2023-05-08T23:46:29.897Z,12.27
2023-05-08T23:48:53.210Z,12.20
2023-05-08T23:51:17.832Z,13.32
2023-05-08T23:53:42.184Z,13.15
2023-05-08T23:56:06.301Z,12.23
2023-05-08T23:58:29.598Z,12.80
